sensor_id;sensor_type;location;lat;lon;timestamp;P1;durP1;ratioP1;P2;durP2;ratioP2
48987;SDS011;34799;51.440;-2.534;2023-12-14T00:01:17;7.10;;;1.92;;
48987;SDS011;34799;51.440;-2.534;2023-12-14T00:03:44;6.93;;;1.63;;
48987;SDS011;34799;51.440;-2.534;2023-12-14T00:06:12;7.03;;;1.58;;
48987;SDS011;34799;51.440;-2.534;2023-12-14T00:08:39;4.78;;;1.40;;
48987;SDS011;34799;51.440;-2.534;2023-12-14T00:11:08;6.25;;;1.27;;
48987;SDS011;34799;51.440;-2.534;2023-12-14T00:13:37;6.20;;;1.27;;
48987;SDS011;34799;51.440;-2.534;2023-12-14T00:16:05;5.45;;;1.05;;
48987;SDS011;34799;51.440;-2.534;2023-12-14T00:18:34;5.82;;;1.30;;
48987;SDS011;34799;51.440;-2.534;2023-12-14T00:21:02;7.40;;;1.50;;
48987;SDS011;34799;51.440;-2.534;2023-12-14T00:23:30;6.28;;;1.30;;
48987;SDS011;34799;51.440;-2.534;2023-12-14T00:25:58;5.18;;;1.10;;
48987;SDS011;34799;51.440;-2.534;2023-12-14T00:28:25;3.97;;;0.90;;
48987;SDS011;34799;51.440;-2.534;2023-12-14T00:30:53;4.00;;;1.70;;
48987;SDS011;34799;51.440;-2.534;2023-12-14T00:33:20;4.65;;;1.10;;
48987;SDS011;34799;51.440;-2.534;2023-12-14T00:35:47;3.40;;;0.90;;
48987;SDS011;34799;51.440;-2.534;2023-12-14T00:38:15;6.50;;;1.50;;
48987;SDS011;34799;51.440;-2.534;2023-12-14T00:40:42;7.47;;;1.85;;
48987;SDS011;34799;51.440;-2.534;2023-12-14T00:43:09;5.75;;;1.60;;
48987;SDS011;34799;51.440;-2.534;2023-12-14T00:45:36;5.90;;;1.50;;
48987;SDS011;34799;51.440;-2.534;2023-12-14T00:48:04;6.28;;;1.90;;
48987;SDS011;34799;51.440;-2.534;2023-12-14T00:50:31;7.13;;;1.63;;
48987;SDS011;34799;51.440;-2.534;2023-12-14T00:52:59;4.47;;;1.13;;
48987;SDS011;34799;51.440;-2.534;2023-12-14T00:55:26;4.35;;;0.93;;
48987;SDS011;34799;51.440;-2.534;2023-12-14T00:57:54;4.15;;;1.30;;
48987;SDS011;34799;51.440;-2.534;2023-12-14T01:00:21;9.48;;;1.60;;
48987;SDS011;34799;51.440;-2.534;2023-12-14T01:02:48;3.78;;;1.10;;
48987;SDS011;34799;51.440;-2.534;2023-12-14T01:05:15;5.93;;;1.10;;
48987;SDS011;34799;51.440;-2.534;2023-12-14T01:07:43;4.65;;;1.05;;
48987;SDS011;34799;51.440;-2.534;2023-12-14T01:10:11;5.38;;;1.38;;
48987;SDS011;34799;51.440;-2.534;2023-12-14T01:12:39;5.90;;;1.60;;
48987;SDS011;34799;51.440;-2.534;2023-12-14T01:15:06;5.70;;;1.83;;
48987;SDS011;34799;51.440;-2.534;2023-12-14T01:17:33;4.63;;;1.33;;
48987;SDS011;34799;51.440;-2.534;2023-12-14T01:20:06;5.22;;;1.13;;
48987;SDS011;34799;51.440;-2.534;2023-12-14T01:22:35;3.35;;;1.00;;
48987;SDS011;34799;51.440;-2.534;2023-12-14T01:25:03;7.95;;;1.55;;
48987;SDS011;34799;51.440;-2.534;2023-12-14T01:27:31;5.75;;;0.98;;
48987;SDS011;34799;51.440;-2.534;2023-12-14T01:29:58;6.22;;;1.30;;
48987;SDS011;34799;51.440;-2.534;2023-12-14T01:32:25;4.95;;;1.00;;
48987;SDS011;34799;51.440;-2.534;2023-12-14T01:34:52;5.95;;;1.23;;
48987;SDS011;34799;51.440;-2.534;2023-12-14T01:37:19;6.47;;;1.50;;
48987;SDS011;34799;51.440;-2.534;2023-12-14T01:39:47;6.20;;;1.40;;
48987;SDS011;34799;51.440;-2.534;2023-12-14T01:42:15;5.68;;;1.35;;
48987;SDS011;34799;51.440;-2.534;2023-12-14T01:44:42;6.72;;;1.52;;
48987;SDS011;34799;51.440;-2.534;2023-12-14T01:47:09;3.47;;;1.20;;
48987;SDS011;34799;51.440;-2.534;2023-12-14T01:49:37;6.30;;;1.60;;
48987;SDS011;34799;51.440;-2.534;2023-12-14T01:52:04;5.38;;;1.33;;
48987;SDS011;34799;51.440;-2.534;2023-12-14T01:54:32;5.60;;;1.65;;
48987;SDS011;34799;51.440;-2.534;2023-12-14T01:57:00;5.47;;;2.08;;
48987;SDS011;34799;51.440;-2.534;2023-12-14T01:59:27;7.40;;;1.63;;
48987;SDS011;34799;51.440;-2.534;2023-12-14T02:01:55;6.80;;;2.13;;
48987;SDS011;34799;51.440;-2.534;2023-12-14T02:04:24;8.60;;;2.70;;
48987;SDS011;34799;51.440;-2.534;2023-12-14T02:06:52;7.28;;;2.30;;
48987;SDS011;34799;51.440;-2.534;2023-12-14T02:09:19;6.03;;;2.47;;
48987;SDS011;34799;51.440;-2.534;2023-12-14T02:11:46;11.20;;;2.75;;
48987;SDS011;34799;51.440;-2.534;2023-12-14T02:14:14;8.27;;;2.65;;
48987;SDS011;34799;51.440;-2.534;2023-12-14T02:16:42;3.72;;;1.95;;
48987;SDS011;34799;51.440;-2.534;2023-12-14T02:19:09;9.30;;;2.30;;
48987;SDS011;34799;51.440;-2.534;2023-12-14T02:21:36;7.32;;;1.90;;
48987;SDS011;34799;51.440;-2.534;2023-12-14T02:24:03;6.78;;;2.40;;
48987;SDS011;34799;51.440;-2.534;2023-12-14T02:26:31;7.22;;;2.65;;
48987;SDS011;34799;51.440;-2.534;2023-12-14T02:28:58;7.28;;;2.15;;
48987;SDS011;34799;51.440;-2.534;2023-12-14T02:31:26;5.90;;;1.90;;
48987;SDS011;34799;51.440;-2.534;2023-12-14T02:33:54;10.35;;;2.38;;
48987;SDS011;34799;51.440;-2.534;2023-12-14T02:36:21;4.85;;;1.90;;
48987;SDS011;34799;51.440;-2.534;2023-12-14T02:38:48;6.15;;;1.73;;
48987;SDS011;34799;51.440;-2.534;2023-12-14T02:41:15;9.93;;;2.10;;
48987;SDS011;34799;51.440;-2.534;2023-12-14T02:43:43;7.15;;;1.45;;
48987;SDS011;34799;51.440;-2.534;2023-12-14T02:46:11;2.97;;;1.52;;
48987;SDS011;34799;51.440;-2.534;2023-12-14T02:48:41;5.18;;;1.75;;
48987;SDS011;34799;51.440;-2.534;2023-12-14T02:51:13;5.82;;;1.95;;
48987;SDS011;34799;51.440;-2.534;2023-12-14T02:53:41;5.72;;;1.70;;
48987;SDS011;34799;51.440;-2.534;2023-12-14T02:56:09;6.85;;;1.65;;
48987;SDS011;34799;51.440;-2.534;2023-12-14T02:58:37;9.88;;;2.22;;
48987;SDS011;34799;51.440;-2.534;2023-12-14T03:01:04;6.97;;;2.00;;
48987;SDS011;34799;51.440;-2.534;2023-12-14T03:03:33;6.47;;;1.80;;
48987;SDS011;34799;51.440;-2.534;2023-12-14T03:06:01;4.95;;;1.38;;
48987;SDS011;34799;51.440;-2.534;2023-12-14T03:08:29;8.00;;;2.25;;
48987;SDS011;34799;51.440;-2.534;2023-12-14T03:10:58;6.50;;;2.22;;
48987;SDS011;34799;51.440;-2.534;2023-12-14T03:13:27;5.80;;;1.38;;
48987;SDS011;34799;51.440;-2.534;2023-12-14T03:15:55;4.05;;;2.00;;
48987;SDS011;34799;51.440;-2.534;2023-12-14T03:18:22;5.47;;;1.77;;
48987;SDS011;34799;51.440;-2.534;2023-12-14T03:20:49;7.63;;;2.10;;
48987;SDS011;34799;51.440;-2.534;2023-12-14T03:23:17;5.03;;;1.63;;
48987;SDS011;34799;51.440;-2.534;2023-12-14T03:25:44;7.35;;;1.80;;
48987;SDS011;34799;51.440;-2.534;2023-12-14T03:28:12;5.47;;;1.88;;
48987;SDS011;34799;51.440;-2.534;2023-12-14T03:30:40;4.40;;;1.45;;
48987;SDS011;34799;51.440;-2.534;2023-12-14T03:33:08;7.70;;;1.70;;
48987;SDS011;34799;51.440;-2.534;2023-12-14T03:35:35;4.78;;;1.40;;
48987;SDS011;34799;51.440;-2.534;2023-12-14T03:38:02;4.45;;;1.55;;
48987;SDS011;34799;51.440;-2.534;2023-12-14T03:40:29;7.97;;;1.50;;
48987;SDS011;34799;51.440;-2.534;2023-12-14T03:42:57;6.70;;;1.58;;
48987;SDS011;34799;51.440;-2.534;2023-12-14T03:45:24;7.32;;;1.50;;
48987;SDS011;34799;51.440;-2.534;2023-12-14T03:47:51;3.45;;;1.40;;
48987;SDS011;34799;51.440;-2.534;2023-12-14T03:50:18;5.00;;;1.38;;
48987;SDS011;34799;51.440;-2.534;2023-12-14T03:52:46;5.68;;;1.80;;
48987;SDS011;34799;51.440;-2.534;2023-12-14T03:55:13;4.65;;;1.45;;
48987;SDS011;34799;51.440;-2.534;2023-12-14T03:57:41;5.03;;;1.70;;
48987;SDS011;34799;51.440;-2.534;2023-12-14T04:00:12;4.10;;;1.98;;
48987;SDS011;34799;51.440;-2.534;2023-12-14T04:02:39;3.78;;;1.80;;
48987;SDS011;34799;51.440;-2.534;2023-12-14T04:05:08;6.93;;;1.45;;
48987;SDS011;34799;51.440;-2.534;2023-12-14T04:07:36;4.75;;;1.40;;
48987;SDS011;34799;51.440;-2.534;2023-12-14T04:10:07;9.65;;;1.95;;
48987;SDS011;34799;51.440;-2.534;2023-12-14T04:12:35;3.03;;;1.45;;
48987;SDS011;34799;51.440;-2.534;2023-12-14T04:15:03;4.30;;;1.13;;
48987;SDS011;34799;51.440;-2.534;2023-12-14T04:17:32;4.43;;;1.35;;
48987;SDS011;34799;51.440;-2.534;2023-12-14T04:19:59;4.93;;;1.33;;
48987;SDS011;34799;51.440;-2.534;2023-12-14T04:22:29;3.03;;;1.20;;
48987;SDS011;34799;51.440;-2.534;2023-12-14T04:24:57;4.88;;;1.25;;
48987;SDS011;34799;51.440;-2.534;2023-12-14T04:27:25;6.82;;;1.55;;
48987;SDS011;34799;51.440;-2.534;2023-12-14T04:29:55;11.05;;;1.40;;
48987;SDS011;34799;51.440;-2.534;2023-12-14T04:32:23;2.70;;;1.08;;
48987;SDS011;34799;51.440;-2.534;2023-12-14T04:34:50;4.68;;;1.52;;
48987;SDS011;34799;51.440;-2.534;2023-12-14T04:37:17;4.70;;;1.40;;
48987;SDS011;34799;51.440;-2.534;2023-12-14T04:39:45;6.57;;;1.55;;
48987;SDS011;34799;51.440;-2.534;2023-12-14T04:42:12;5.30;;;1.60;;
48987;SDS011;34799;51.440;-2.534;2023-12-14T04:44:39;3.53;;;1.42;;
48987;SDS011;34799;51.440;-2.534;2023-12-14T04:47:07;6.90;;;1.85;;
48987;SDS011;34799;51.440;-2.534;2023-12-14T04:49:35;5.63;;;1.63;;
48987;SDS011;34799;51.440;-2.534;2023-12-14T04:52:03;3.17;;;1.55;;
48987;SDS011;34799;51.440;-2.534;2023-12-14T04:54:32;6.78;;;1.35;;
48987;SDS011;34799;51.440;-2.534;2023-12-14T04:57:00;8.82;;;1.63;;
48987;SDS011;34799;51.440;-2.534;2023-12-14T04:59:27;3.72;;;1.33;;
48987;SDS011;34799;51.440;-2.534;2023-12-14T05:01:54;3.47;;;1.17;;
48987;SDS011;34799;51.440;-2.534;2023-12-14T05:04:21;3.67;;;1.60;;
48987;SDS011;34799;51.440;-2.534;2023-12-14T05:06:48;3.38;;;1.40;;
48987;SDS011;34799;51.440;-2.534;2023-12-14T05:09:17;7.75;;;1.38;;
48987;SDS011;34799;51.440;-2.534;2023-12-14T05:11:44;3.63;;;1.00;;
48987;SDS011;34799;51.440;-2.534;2023-12-14T05:14:12;4.10;;;1.20;;
48987;SDS011;34799;51.440;-2.534;2023-12-14T05:16:39;4.70;;;1.35;;
48987;SDS011;34799;51.440;-2.534;2023-12-14T05:19:06;5.03;;;1.55;;
48987;SDS011;34799;51.440;-2.534;2023-12-14T05:21:34;6.60;;;1.23;;
48987;SDS011;34799;51.440;-2.534;2023-12-14T05:24:03;5.90;;;1.30;;
48987;SDS011;34799;51.440;-2.534;2023-12-14T05:26:31;4.20;;;1.13;;
48987;SDS011;34799;51.440;-2.534;2023-12-14T05:28:58;4.10;;;1.30;;
48987;SDS011;34799;51.440;-2.534;2023-12-14T05:31:26;6.28;;;1.48;;
48987;SDS011;34799;51.440;-2.534;2023-12-14T05:33:54;4.80;;;1.02;;
48987;SDS011;34799;51.440;-2.534;2023-12-14T05:36:21;6.68;;;0.90;;
48987;SDS011;34799;51.440;-2.534;2023-12-14T05:38:49;4.72;;;1.15;;
48987;SDS011;34799;51.440;-2.534;2023-12-14T05:41:16;5.82;;;1.10;;
48987;SDS011;34799;51.440;-2.534;2023-12-14T05:43:44;9.82;;;1.45;;
48987;SDS011;34799;51.440;-2.534;2023-12-14T05:46:19;18.15;;;2.92;;
48987;SDS011;34799;51.440;-2.534;2023-12-14T05:48:51;6.82;;;1.38;;
48987;SDS011;34799;51.440;-2.534;2023-12-14T05:51:27;3.10;;;1.20;;
48987;SDS011;34799;51.440;-2.534;2023-12-14T05:53:55;4.18;;;1.17;;
48987;SDS011;34799;51.440;-2.534;2023-12-14T05:56:24;4.22;;;1.13;;
48987;SDS011;34799;51.440;-2.534;2023-12-14T05:58:54;3.00;;;0.90;;
48987;SDS011;34799;51.440;-2.534;2023-12-14T06:01:23;3.25;;;0.70;;
48987;SDS011;34799;51.440;-2.534;2023-12-14T06:03:51;6.53;;;0.80;;
48987;SDS011;34799;51.440;-2.534;2023-12-14T06:06:19;5.72;;;1.15;;
48987;SDS011;34799;51.440;-2.534;2023-12-14T06:08:47;6.22;;;1.48;;
48987;SDS011;34799;51.440;-2.534;2023-12-14T06:11:15;5.78;;;1.33;;
48987;SDS011;34799;51.440;-2.534;2023-12-14T06:13:43;6.70;;;1.27;;
48987;SDS011;34799;51.440;-2.534;2023-12-14T06:16:10;3.38;;;1.23;;
48987;SDS011;34799;51.440;-2.534;2023-12-14T06:18:42;8.90;;;1.42;;
48987;SDS011;34799;51.440;-2.534;2023-12-14T06:21:11;4.65;;;1.40;;
48987;SDS011;34799;51.440;-2.534;2023-12-14T06:23:38;8.68;;;3.97;;
48987;SDS011;34799;51.440;-2.534;2023-12-14T06:26:06;6.28;;;1.42;;
48987;SDS011;34799;51.440;-2.534;2023-12-14T06:28:33;5.15;;;1.58;;
48987;SDS011;34799;51.440;-2.534;2023-12-14T06:31:01;5.95;;;1.75;;
48987;SDS011;34799;51.440;-2.534;2023-12-14T06:33:28;3.78;;;1.48;;
48987;SDS011;34799;51.440;-2.534;2023-12-14T06:35:56;6.28;;;1.17;;
48987;SDS011;34799;51.440;-2.534;2023-12-14T06:38:24;6.30;;;1.60;;
48987;SDS011;34799;51.440;-2.534;2023-12-14T06:40:51;4.85;;;1.08;;
48987;SDS011;34799;51.440;-2.534;2023-12-14T06:43:18;5.75;;;1.23;;
48987;SDS011;34799;51.440;-2.534;2023-12-14T06:45:45;2.50;;;1.00;;
48987;SDS011;34799;51.440;-2.534;2023-12-14T06:48:12;3.67;;;1.33;;
48987;SDS011;34799;51.440;-2.534;2023-12-14T06:50:40;4.30;;;1.15;;
48987;SDS011;34799;51.440;-2.534;2023-12-14T06:53:08;4.70;;;1.17;;
48987;SDS011;34799;51.440;-2.534;2023-12-14T06:55:36;5.35;;;1.35;;
48987;SDS011;34799;51.440;-2.534;2023-12-14T06:58:03;6.90;;;1.67;;
48987;SDS011;34799;51.440;-2.534;2023-12-14T07:00:35;2.80;;;1.13;;
48987;SDS011;34799;51.440;-2.534;2023-12-14T07:03:03;2.53;;;1.10;;
48987;SDS011;34799;51.440;-2.534;2023-12-14T07:05:30;3.42;;;1.30;;
48987;SDS011;34799;51.440;-2.534;2023-12-14T07:07:58;6.47;;;1.67;;
48987;SDS011;34799;51.440;-2.534;2023-12-14T07:10:25;2.97;;;1.02;;
48987;SDS011;34799;51.440;-2.534;2023-12-14T07:12:53;5.93;;;1.23;;
48987;SDS011;34799;51.440;-2.534;2023-12-14T07:15:20;3.88;;;1.30;;
48987;SDS011;34799;51.440;-2.534;2023-12-14T07:17:47;2.30;;;0.93;;
48987;SDS011;34799;51.440;-2.534;2023-12-14T07:20:14;2.55;;;1.00;;
48987;SDS011;34799;51.440;-2.534;2023-12-14T07:22:42;7.30;;;1.30;;
48987;SDS011;34799;51.440;-2.534;2023-12-14T07:25:09;7.07;;;1.95;;
48987;SDS011;34799;51.440;-2.534;2023-12-14T07:27:37;4.25;;;1.00;;
48987;SDS011;34799;51.440;-2.534;2023-12-14T07:30:04;4.25;;;1.05;;
48987;SDS011;34799;51.440;-2.534;2023-12-14T07:32:33;7.55;;;1.45;;
48987;SDS011;34799;51.440;-2.534;2023-12-14T07:35:00;7.78;;;1.50;;
48987;SDS011;34799;51.440;-2.534;2023-12-14T07:37:27;5.30;;;1.35;;
48987;SDS011;34799;51.440;-2.534;2023-12-14T07:39:54;5.35;;;1.25;;
48987;SDS011;34799;51.440;-2.534;2023-12-14T07:42:21;4.88;;;1.27;;
48987;SDS011;34799;51.440;-2.534;2023-12-14T07:44:48;5.15;;;1.23;;
48987;SDS011;34799;51.440;-2.534;2023-12-14T07:47:16;5.82;;;1.30;;
48987;SDS011;34799;51.440;-2.534;2023-12-14T07:49:44;3.47;;;0.90;;
48987;SDS011;34799;51.440;-2.534;2023-12-14T07:52:13;5.88;;;1.30;;
48987;SDS011;34799;51.440;-2.534;2023-12-14T07:54:41;5.13;;;0.90;;
48987;SDS011;34799;51.440;-2.534;2023-12-14T07:57:08;2.92;;;0.80;;
48987;SDS011;34799;51.440;-2.534;2023-12-14T07:59:35;6.25;;;1.13;;
48987;SDS011;34799;51.440;-2.534;2023-12-14T08:02:02;3.65;;;0.88;;
48987;SDS011;34799;51.440;-2.534;2023-12-14T08:04:29;5.85;;;0.95;;
48987;SDS011;34799;51.440;-2.534;2023-12-14T08:06:59;4.57;;;0.95;;
48987;SDS011;34799;51.440;-2.534;2023-12-14T08:09:27;4.53;;;0.88;;
48987;SDS011;34799;51.440;-2.534;2023-12-14T08:11:54;9.73;;;1.42;;
48987;SDS011;34799;51.440;-2.534;2023-12-14T08:14:21;2.95;;;0.85;;
48987;SDS011;34799;51.440;-2.534;2023-12-14T08:16:48;3.42;;;0.85;;
48987;SDS011;34799;51.440;-2.534;2023-12-14T08:19:15;5.40;;;1.15;;
48987;SDS011;34799;51.440;-2.534;2023-12-14T08:21:43;7.00;;;1.35;;
48987;SDS011;34799;51.440;-2.534;2023-12-14T08:24:10;4.95;;;1.40;;
48987;SDS011;34799;51.440;-2.534;2023-12-14T08:26:38;2.80;;;0.95;;
48987;SDS011;34799;51.440;-2.534;2023-12-14T08:29:04;5.18;;;0.77;;
48987;SDS011;34799;51.440;-2.534;2023-12-14T08:31:32;6.32;;;0.60;;
48987;SDS011;34799;51.440;-2.534;2023-12-14T08:33:59;4.38;;;0.63;;
48987;SDS011;34799;51.440;-2.534;2023-12-14T08:36:27;9.13;;;1.27;;
48987;SDS011;34799;51.440;-2.534;2023-12-14T08:38:54;6.38;;;1.02;;
48987;SDS011;34799;51.440;-2.534;2023-12-14T08:41:22;4.97;;;1.00;;
48987;SDS011;34799;51.440;-2.534;2023-12-14T08:43:50;4.05;;;0.90;;
48987;SDS011;34799;51.440;-2.534;2023-12-14T08:46:18;8.60;;;1.00;;
48987;SDS011;34799;51.440;-2.534;2023-12-14T08:48:45;3.88;;;0.80;;
48987;SDS011;34799;51.440;-2.534;2023-12-14T08:51:13;4.55;;;0.90;;
48987;SDS011;34799;51.440;-2.534;2023-12-14T08:53:40;6.50;;;0.90;;
48987;SDS011;34799;51.440;-2.534;2023-12-14T08:56:08;5.47;;;1.10;;
48987;SDS011;34799;51.440;-2.534;2023-12-14T08:58:35;5.40;;;1.10;;
48987;SDS011;34799;51.440;-2.534;2023-12-14T09:01:03;7.15;;;0.80;;
48987;SDS011;34799;51.440;-2.534;2023-12-14T09:03:31;4.55;;;1.00;;
48987;SDS011;34799;51.440;-2.534;2023-12-14T09:05:58;4.47;;;0.90;;
48987;SDS011;34799;51.440;-2.534;2023-12-14T09:08:29;6.13;;;0.93;;
48987;SDS011;34799;51.440;-2.534;2023-12-14T09:10:58;3.33;;;0.77;;
48987;SDS011;34799;51.440;-2.534;2023-12-14T09:13:25;5.18;;;1.00;;
48987;SDS011;34799;51.440;-2.534;2023-12-14T09:15:52;2.63;;;1.00;;
48987;SDS011;34799;51.440;-2.534;2023-12-14T09:18:20;3.90;;;0.90;;
48987;SDS011;34799;51.440;-2.534;2023-12-14T09:20:49;5.38;;;1.15;;
48987;SDS011;34799;51.440;-2.534;2023-12-14T09:23:16;3.45;;;1.05;;
48987;SDS011;34799;51.440;-2.534;2023-12-14T09:25:45;3.97;;;1.02;;
48987;SDS011;34799;51.440;-2.534;2023-12-14T09:28:13;3.90;;;1.25;;
48987;SDS011;34799;51.440;-2.534;2023-12-14T09:30:40;3.72;;;0.85;;
48987;SDS011;34799;51.440;-2.534;2023-12-14T09:33:08;8.40;;;0.93;;
48987;SDS011;34799;51.440;-2.534;2023-12-14T09:35:38;4.38;;;0.90;;
48987;SDS011;34799;51.440;-2.534;2023-12-14T09:38:07;7.18;;;1.60;;
48987;SDS011;34799;51.440;-2.534;2023-12-14T09:40:36;3.35;;;1.23;;
48987;SDS011;34799;51.440;-2.534;2023-12-14T09:43:03;6.35;;;1.15;;
48987;SDS011;34799;51.440;-2.534;2023-12-14T09:45:32;3.30;;;1.02;;
48987;SDS011;34799;51.440;-2.534;2023-12-14T09:48:02;3.35;;;0.68;;
48987;SDS011;34799;51.440;-2.534;2023-12-14T09:50:30;4.00;;;0.77;;
48987;SDS011;34799;51.440;-2.534;2023-12-14T09:52:58;5.88;;;0.75;;
48987;SDS011;34799;51.440;-2.534;2023-12-14T09:55:25;4.93;;;0.82;;
48987;SDS011;34799;51.440;-2.534;2023-12-14T09:57:52;5.35;;;1.40;;
48987;SDS011;34799;51.440;-2.534;2023-12-14T10:03:25;6.05;;;0.82;;
48987;SDS011;34799;51.440;-2.534;2023-12-14T10:05:55;4.68;;;0.80;;
48987;SDS011;34799;51.440;-2.534;2023-12-14T10:08:23;8.40;;;1.98;;
48987;SDS011;34799;51.440;-2.534;2023-12-14T10:10:52;2.33;;;0.70;;
48987;SDS011;34799;51.440;-2.534;2023-12-14T10:13:22;4.88;;;0.77;;
48987;SDS011;34799;51.440;-2.534;2023-12-14T10:16:06;2.80;;;0.70;;
48987;SDS011;34799;51.440;-2.534;2023-12-14T10:18:34;4.35;;;0.60;;
48987;SDS011;34799;51.440;-2.534;2023-12-14T10:21:03;4.20;;;0.60;;
48987;SDS011;34799;51.440;-2.534;2023-12-14T10:23:33;4.45;;;1.05;;
48987;SDS011;34799;51.440;-2.534;2023-12-14T10:26:01;5.03;;;0.85;;
48987;SDS011;34799;51.440;-2.534;2023-12-14T10:28:32;5.63;;;1.00;;
48987;SDS011;34799;51.440;-2.534;2023-12-14T10:30:59;3.05;;;0.93;;
48987;SDS011;34799;51.440;-2.534;2023-12-14T10:33:27;3.53;;;1.35;;
48987;SDS011;34799;51.440;-2.534;2023-12-14T10:35:56;3.95;;;0.70;;
48987;SDS011;34799;51.440;-2.534;2023-12-14T10:38:25;3.28;;;0.80;;
48987;SDS011;34799;51.440;-2.534;2023-12-14T10:40:56;4.10;;;0.80;;
48987;SDS011;34799;51.440;-2.534;2023-12-14T10:43:24;5.43;;;1.02;;
48987;SDS011;34799;51.440;-2.534;2023-12-14T10:45:57;4.55;;;0.70;;
48987;SDS011;34799;51.440;-2.534;2023-12-14T10:48:28;2.83;;;1.00;;
48987;SDS011;34799;51.440;-2.534;2023-12-14T10:50:58;4.57;;;0.80;;
48987;SDS011;34799;51.440;-2.534;2023-12-14T10:53:28;5.25;;;1.33;;
48987;SDS011;34799;51.440;-2.534;2023-12-14T10:55:56;6.68;;;1.55;;
48987;SDS011;34799;51.440;-2.534;2023-12-14T10:58:27;4.80;;;1.15;;
48987;SDS011;34799;51.440;-2.534;2023-12-14T11:01:01;4.32;;;0.70;;
48987;SDS011;34799;51.440;-2.534;2023-12-14T11:03:32;4.78;;;0.60;;
48987;SDS011;34799;51.440;-2.534;2023-12-14T11:06:01;4.72;;;0.60;;
48987;SDS011;34799;51.440;-2.534;2023-12-14T11:08:34;3.55;;;0.60;;
48987;SDS011;34799;51.440;-2.534;2023-12-14T11:11:03;1.48;;;0.55;;
48987;SDS011;34799;51.440;-2.534;2023-12-14T11:13:38;5.15;;;0.55;;
48987;SDS011;34799;51.440;-2.534;2023-12-14T11:16:07;2.03;;;0.50;;
48987;SDS011;34799;51.440;-2.534;2023-12-14T11:18:34;3.58;;;0.70;;
48987;SDS011;34799;51.440;-2.534;2023-12-14T11:21:02;4.78;;;1.00;;
48987;SDS011;34799;51.440;-2.534;2023-12-14T11:23:32;2.80;;;0.70;;
48987;SDS011;34799;51.440;-2.534;2023-12-14T11:26:06;5.35;;;1.30;;
48987;SDS011;34799;51.440;-2.534;2023-12-14T11:28:37;6.65;;;0.95;;
48987;SDS011;34799;51.440;-2.534;2023-12-14T11:31:11;5.13;;;0.63;;
48987;SDS011;34799;51.440;-2.534;2023-12-14T11:33:40;2.20;;;0.35;;
48987;SDS011;34799;51.440;-2.534;2023-12-14T11:36:08;3.63;;;0.82;;
48987;SDS011;34799;51.440;-2.534;2023-12-14T11:38:38;2.22;;;0.50;;
48987;SDS011;34799;51.440;-2.534;2023-12-14T11:41:06;3.33;;;0.60;;
48987;SDS011;34799;51.440;-2.534;2023-12-14T11:43:40;6.70;;;0.60;;
48987;SDS011;34799;51.440;-2.534;2023-12-14T11:46:08;5.32;;;1.00;;
48987;SDS011;34799;51.440;-2.534;2023-12-14T11:48:36;4.28;;;0.85;;
48987;SDS011;34799;51.440;-2.534;2023-12-14T11:51:04;4.35;;;0.60;;
48987;SDS011;34799;51.440;-2.534;2023-12-14T11:53:32;3.65;;;0.85;;
48987;SDS011;34799;51.440;-2.534;2023-12-14T11:56:00;1.83;;;0.50;;
48987;SDS011;34799;51.440;-2.534;2023-12-14T11:58:31;7.15;;;1.00;;
48987;SDS011;34799;51.440;-2.534;2023-12-14T12:03:42;3.25;;;0.77;;
48987;SDS011;34799;51.440;-2.534;2023-12-14T12:06:24;7.38;;;1.25;;
48987;SDS011;34799;51.440;-2.534;2023-12-14T12:08:56;6.53;;;1.30;;
48987;SDS011;34799;51.440;-2.534;2023-12-14T12:11:24;3.17;;;1.05;;
48987;SDS011;34799;51.440;-2.534;2023-12-14T12:13:54;5.80;;;1.17;;
48987;SDS011;34799;51.440;-2.534;2023-12-14T12:16:22;3.85;;;1.10;;
48987;SDS011;34799;51.440;-2.534;2023-12-14T12:18:50;4.32;;;1.48;;
48987;SDS011;34799;51.440;-2.534;2023-12-14T12:21:18;3.58;;;1.60;;
48987;SDS011;34799;51.440;-2.534;2023-12-14T12:23:46;5.45;;;1.48;;
48987;SDS011;34799;51.440;-2.534;2023-12-14T12:26:14;10.25;;;2.05;;
48987;SDS011;34799;51.440;-2.534;2023-12-14T12:28:42;5.43;;;2.28;;
48987;SDS011;34799;51.440;-2.534;2023-12-14T12:31:09;5.82;;;2.20;;
48987;SDS011;34799;51.440;-2.534;2023-12-14T12:33:36;5.70;;;3.05;;
48987;SDS011;34799;51.440;-2.534;2023-12-14T12:36:04;5.60;;;2.85;;
48987;SDS011;34799;51.440;-2.534;2023-12-14T12:38:32;6.38;;;2.70;;
48987;SDS011;34799;51.440;-2.534;2023-12-14T12:41:00;6.90;;;2.78;;
48987;SDS011;34799;51.440;-2.534;2023-12-14T12:43:28;12.23;;;3.28;;
48987;SDS011;34799;51.440;-2.534;2023-12-14T12:45:56;7.95;;;2.80;;
48987;SDS011;34799;51.440;-2.534;2023-12-14T12:48:25;5.57;;;2.80;;
48987;SDS011;34799;51.440;-2.534;2023-12-14T12:50:53;6.05;;;2.72;;
48987;SDS011;34799;51.440;-2.534;2023-12-14T12:53:20;5.22;;;2.70;;
48987;SDS011;34799;51.440;-2.534;2023-12-14T12:55:47;5.28;;;2.70;;
48987;SDS011;34799;51.440;-2.534;2023-12-14T12:58:14;8.63;;;2.53;;
48987;SDS011;34799;51.440;-2.534;2023-12-14T13:00:41;6.72;;;2.90;;
48987;SDS011;34799;51.440;-2.534;2023-12-14T13:03:09;8.13;;;2.70;;
48987;SDS011;34799;51.440;-2.534;2023-12-14T13:05:37;6.68;;;2.85;;
48987;SDS011;34799;51.440;-2.534;2023-12-14T13:08:05;5.00;;;2.20;;
48987;SDS011;34799;51.440;-2.534;2023-12-14T13:10:34;6.40;;;2.20;;
48987;SDS011;34799;51.440;-2.534;2023-12-14T13:13:01;7.22;;;2.33;;
48987;SDS011;34799;51.440;-2.534;2023-12-14T13:15:28;6.95;;;2.30;;
48987;SDS011;34799;51.440;-2.534;2023-12-14T13:17:57;5.38;;;1.95;;
48987;SDS011;34799;51.440;-2.534;2023-12-14T13:20:25;7.47;;;2.15;;
48987;SDS011;34799;51.440;-2.534;2023-12-14T13:22:53;6.72;;;2.05;;
48987;SDS011;34799;51.440;-2.534;2023-12-14T13:25:20;7.72;;;2.70;;
48987;SDS011;34799;51.440;-2.534;2023-12-14T13:27:52;5.25;;;1.60;;
48987;SDS011;34799;51.440;-2.534;2023-12-14T13:30:19;6.93;;;1.30;;
48987;SDS011;34799;51.440;-2.534;2023-12-14T13:32:49;5.43;;;1.95;;
48987;SDS011;34799;51.440;-2.534;2023-12-14T13:35:16;5.20;;;1.70;;
48987;SDS011;34799;51.440;-2.534;2023-12-14T13:37:44;4.90;;;1.58;;
48987;SDS011;34799;51.440;-2.534;2023-12-14T13:40:13;3.50;;;1.20;;
48987;SDS011;34799;51.440;-2.534;2023-12-14T13:42:43;5.00;;;1.25;;
48987;SDS011;34799;51.440;-2.534;2023-12-14T13:45:12;7.40;;;1.50;;
48987;SDS011;34799;51.440;-2.534;2023-12-14T13:47:39;2.45;;;1.17;;
48987;SDS011;34799;51.440;-2.534;2023-12-14T13:50:07;4.82;;;1.20;;
48987;SDS011;34799;51.440;-2.534;2023-12-14T13:52:35;3.58;;;1.35;;
48987;SDS011;34799;51.440;-2.534;2023-12-14T13:55:03;6.78;;;1.30;;
48987;SDS011;34799;51.440;-2.534;2023-12-14T13:57:30;3.67;;;1.23;;
48987;SDS011;34799;51.440;-2.534;2023-12-14T13:59:57;4.93;;;1.20;;
48987;SDS011;34799;51.440;-2.534;2023-12-14T14:02:25;3.58;;;1.00;;
48987;SDS011;34799;51.440;-2.534;2023-12-14T14:04:54;3.72;;;1.13;;
48987;SDS011;34799;51.440;-2.534;2023-12-14T14:07:21;4.35;;;0.80;;
48987;SDS011;34799;51.440;-2.534;2023-12-14T14:09:49;5.97;;;1.00;;
48987;SDS011;34799;51.440;-2.534;2023-12-14T14:12:17;6.05;;;1.08;;
48987;SDS011;34799;51.440;-2.534;2023-12-14T14:14:45;5.30;;;1.17;;
48987;SDS011;34799;51.440;-2.534;2023-12-14T14:17:12;5.28;;;1.55;;
48987;SDS011;34799;51.440;-2.534;2023-12-14T14:19:39;4.07;;;1.13;;
48987;SDS011;34799;51.440;-2.534;2023-12-14T14:22:06;4.72;;;1.13;;
48987;SDS011;34799;51.440;-2.534;2023-12-14T14:24:33;4.10;;;1.20;;
48987;SDS011;34799;51.440;-2.534;2023-12-14T14:27:02;4.97;;;1.30;;
48987;SDS011;34799;51.440;-2.534;2023-12-14T14:29:30;5.40;;;1.08;;
48987;SDS011;34799;51.440;-2.534;2023-12-14T14:31:58;4.05;;;1.00;;
48987;SDS011;34799;51.440;-2.534;2023-12-14T14:34:25;2.92;;;0.90;;
48987;SDS011;34799;51.440;-2.534;2023-12-14T14:36:52;6.65;;;1.08;;
48987;SDS011;34799;51.440;-2.534;2023-12-14T14:39:20;7.05;;;1.42;;
48987;SDS011;34799;51.440;-2.534;2023-12-14T14:41:47;4.43;;;0.93;;
48987;SDS011;34799;51.440;-2.534;2023-12-14T14:44:14;6.70;;;1.10;;